createdAt,value
2019-04-16T00:01:45.597Z,97.10
2019-04-16T00:04:53.709Z,96.90
2019-04-16T00:07:51.426Z,97.00
2019-04-16T00:10:27.227Z,97.00
2019-04-16T00:13:15.274Z,97.20
2019-04-16T00:15:44.328Z,97.20
2019-04-16T00:18:13.130Z,97.30
2019-04-16T00:20:53.211Z,97.50
2019-04-16T00:23:34.606Z,97.40
2019-04-16T00:26:04.019Z,97.40
2019-04-16T00:28:32.997Z,97.50
2019-04-16T00:31:04.657Z,97.40
2019-04-16T00:33:32.874Z,97.50
2019-04-16T00:36:01.765Z,97.50
2019-04-16T00:38:40.541Z,97.60
2019-04-16T00:41:02.287Z,97.60
2019-04-16T00:43:31.645Z,97.80
2019-04-16T00:46:00.753Z,97.60
2019-04-16T00:48:29.693Z,97.50
2019-04-16T00:50:58.609Z,97.70
2019-04-16T00:53:27.562Z,97.80
2019-04-16T00:55:56.550Z,97.80
2019-04-16T00:58:25.518Z,97.70
2019-04-16T01:00:54.503Z,97.90
2019-04-16T01:03:23.401Z,97.70
2019-04-16T01:05:52.376Z,98.10
2019-04-16T01:08:21.227Z,98.10
2019-04-16T01:10:50.170Z,98.10
2019-04-16T01:13:18.971Z,98.00
2019-04-16T01:15:47.874Z,98.20
2019-04-16T01:18:16.872Z,98.30
2019-04-16T01:20:45.936Z,98.20
2019-04-16T01:23:17.483Z,98.30
2019-04-16T01:25:45.571Z,98.40
2019-04-16T01:28:17.362Z,98.40
2019-04-16T01:30:55.296Z,98.40
2019-04-16T01:33:37.771Z,98.50
2019-04-16T01:36:27.314Z,98.60
2019-04-16T01:39:14.781Z,98.50
2019-04-16T01:41:29.609Z,98.60
2019-04-16T01:43:58.505Z,98.70
2019-04-16T01:46:27.449Z,98.60
2019-04-16T01:48:56.242Z,98.60
2019-04-16T01:51:25.257Z,98.80
2019-04-16T01:53:54.466Z,98.70
2019-04-16T01:56:27.784Z,98.90
2019-04-16T01:58:54.213Z,98.80
2019-04-16T02:01:23.288Z,98.80
2019-04-16T02:03:52.334Z,98.60
2019-04-16T02:06:25.638Z,98.80
2019-04-16T02:08:54.363Z,98.80
2019-04-16T02:11:23.435Z,98.80
2019-04-16T02:13:52.489Z,98.70
2019-04-16T02:16:22.420Z,98.90
2019-04-16T02:18:52.226Z,98.60
2019-04-16T02:21:21.103Z,98.90
2019-04-16T02:23:49.997Z,98.80
2019-04-16T02:26:20.481Z,98.80
2019-04-16T02:28:49.566Z,98.80
2019-04-16T02:31:19.056Z,98.80
2019-04-16T02:33:47.907Z,98.80
2019-04-16T02:36:16.825Z,99.20
2019-04-16T02:38:52.303Z,99.00
2019-04-16T02:41:16.623Z,99.00
2019-04-16T02:43:45.632Z,98.90
2019-04-16T02:46:14.720Z,98.90
2019-04-16T02:48:50.240Z,98.90
2019-04-16T02:51:39.908Z,99.00
2019-04-16T02:54:12.918Z,99.00
2019-04-16T02:57:05.715Z,99.10
2019-04-16T02:59:37.358Z,98.90
2019-04-16T03:02:16.580Z,99.30
2019-04-16T03:04:49.271Z,99.20
2019-04-16T03:07:18.591Z,99.10
2019-04-16T03:10:00.632Z,99.10
2019-04-16T03:12:20.987Z,99.10
2019-04-16T03:14:49.093Z,99.20
2019-04-16T03:17:45.973Z,99.00
2019-04-16T03:20:16.507Z,99.20
2019-04-16T03:22:45.411Z,99.20
2019-04-16T03:25:14.795Z,99.10
2019-04-16T03:27:43.826Z,99.10
2019-04-16T03:30:14.605Z,99.10
2019-04-16T03:32:50.419Z,99.10
2019-04-16T03:35:25.389Z,99.30
2019-04-16T03:37:50.463Z,99.30
2019-04-16T03:40:24.890Z,99.30
2019-04-16T03:42:50.162Z,99.40
2019-04-16T03:45:19.223Z,99.30
2019-04-16T03:47:50.866Z,99.40
2019-04-16T03:50:18.898Z,99.40
2019-04-16T03:52:47.733Z,99.50
2019-04-16T03:55:16.838Z,99.50
2019-04-16T03:57:46.314Z,99.40
2019-04-16T04:00:16.022Z,99.80
2019-04-16T04:02:44.931Z,99.50
2019-04-16T04:05:13.833Z,99.60
2019-04-16T04:07:44.205Z,99.50
2019-04-16T04:10:13.617Z,99.90
2019-04-16T04:12:42.571Z,99.50
2019-04-16T04:15:13.179Z,99.80
2019-04-16T04:17:42.176Z,99.60
2019-04-16T04:20:14.871Z,99.60
2019-04-16T04:22:42.301Z,99.60
2019-04-16T04:25:11.737Z,99.80
2019-04-16T04:27:40.566Z,99.70
2019-04-16T04:30:09.826Z,99.70
2019-04-16T04:32:38.801Z,99.70
2019-04-16T04:35:07.932Z,99.60
2019-04-16T04:37:36.841Z,99.60
2019-04-16T04:40:05.986Z,99.70
2019-04-16T04:42:34.902Z,99.70
2019-04-16T04:45:16.231Z,99.90
2019-04-16T04:47:34.849Z,99.80
2019-04-16T04:50:04.510Z,99.80
2019-04-16T04:52:33.374Z,99.90
2019-04-16T04:55:02.238Z,99.90
2019-04-16T04:57:34.298Z,99.90
2019-04-16T05:00:05.664Z,99.90
2019-04-16T05:02:34.128Z,99.90
2019-04-16T05:05:24.094Z,99.90
2019-04-16T05:07:51.758Z,99.90
2019-04-16T05:10:20.695Z,99.90
2019-04-16T05:12:50.430Z,99.90
2019-04-16T05:15:20.287Z,99.90
2019-04-16T05:17:49.142Z,99.90
2019-04-16T05:20:18.013Z,99.90
2019-04-16T05:22:47.105Z,99.90
2019-04-16T05:25:16.630Z,99.90
2019-04-16T05:27:45.520Z,99.90
2019-04-16T05:30:20.450Z,99.90
2019-04-16T05:32:45.722Z,99.90
2019-04-16T05:35:14.593Z,99.90
2019-04-16T05:37:43.623Z,99.90
2019-04-16T05:40:13.009Z,99.90
2019-04-16T05:42:41.923Z,99.90
2019-04-16T05:45:11.429Z,99.90
2019-04-16T05:47:40.494Z,99.90
2019-04-16T05:50:09.869Z,99.90
2019-04-16T05:52:38.678Z,99.90
2019-04-16T05:55:16.813Z,99.90
2019-04-16T05:57:45.030Z,99.90
2019-04-16T06:00:42.489Z,99.90
2019-04-16T06:03:11.618Z,99.90
2019-04-16T06:05:40.529Z,99.90
2019-04-16T06:08:10.675Z,99.90
2019-04-16T06:10:40.145Z,99.90
2019-04-16T06:13:28.236Z,99.90
2019-04-16T06:16:07.854Z,99.90
2019-04-16T06:18:54.595Z,99.90
2019-04-16T06:21:41.563Z,99.90
2019-04-16T06:24:28.521Z,99.90
2019-04-16T06:27:12.160Z,99.90
2019-04-16T06:30:01.296Z,99.90
2019-04-16T06:32:38.917Z,99.90
2019-04-16T06:35:42.625Z,99.90
2019-04-16T06:38:06.798Z,99.90
2019-04-16T06:40:41.989Z,99.90
2019-04-16T06:43:17.835Z,99.90
2019-04-16T06:45:55.547Z,99.90
2019-04-16T06:48:29.399Z,99.90
2019-04-16T06:51:14.306Z,99.90
2019-04-16T06:53:56.730Z,99.80
2019-04-16T06:56:40.393Z,99.70
2019-04-16T06:59:17.260Z,99.70
2019-04-16T07:02:10.508Z,99.50
2019-04-16T07:04:51.014Z,99.30
2019-04-16T07:07:40.297Z,99.40
2019-04-16T07:10:13.764Z,99.50
2019-04-16T07:12:42.746Z,99.70
2019-04-16T07:15:12.867Z,99.80
2019-04-16T07:17:41.809Z,99.80
2019-04-16T07:20:13.515Z,99.80
2019-04-16T07:22:41.405Z,99.70
2019-04-16T07:25:10.887Z,99.90
2019-04-16T07:27:58.095Z,99.40
2019-04-16T07:30:39.958Z,99.60
2019-04-16T07:33:25.952Z,99.90
2019-04-16T07:36:20.230Z,99.60
2019-04-16T07:38:57.563Z,99.90
2019-04-16T07:41:32.250Z,99.90
2019-04-16T07:44:10.211Z,99.70
2019-04-16T07:46:53.273Z,99.80
2019-04-16T07:49:36.953Z,99.90
2019-04-16T07:52:18.302Z,99.90
2019-04-16T07:55:12.229Z,99.90
2019-04-16T07:57:41.090Z,99.60
2019-04-16T08:00:10.624Z,99.60
2019-04-16T08:02:39.455Z,99.80
2019-04-16T08:05:09.746Z,99.70
2019-04-16T08:07:38.867Z,99.30
2019-04-16T08:10:08.050Z,99.30
2019-04-16T08:12:41.839Z,99.40
2019-04-16T08:15:14.823Z,99.80
2019-04-16T08:17:40.563Z,99.90
2019-04-16T08:20:09.617Z,99.80
2019-04-16T08:22:40.080Z,99.50
2019-04-16T08:25:09.742Z,99.20
2019-04-16T08:27:38.737Z,98.80
2019-04-16T08:30:10.028Z,98.50
2019-04-16T08:32:38.861Z,99.20
2019-04-16T08:35:07.850Z,98.70
2019-04-16T08:37:48.247Z,99.10
2019-04-16T08:40:08.799Z,98.50
2019-04-16T08:42:44.788Z,98.20
2019-04-16T08:45:09.717Z,98.60
2019-04-16T08:47:38.646Z,98.60
2019-04-16T08:50:11.482Z,98.60
2019-04-16T08:52:41.769Z,98.70
2019-04-16T08:55:09.714Z,98.60
2019-04-16T08:57:38.626Z,98.70
2019-04-16T09:00:14.174Z,98.70
2019-04-16T09:02:40.962Z,98.40
2019-04-16T09:05:11.670Z,98.80
2019-04-16T09:07:41.098Z,97.50
2019-04-16T09:10:18.123Z,97.50
2019-04-16T09:12:47.633Z,98.10
2019-04-16T09:15:40.655Z,98.40
2019-04-16T09:18:21.998Z,98.20
2019-04-16T09:20:51.003Z,98.20
2019-04-16T09:23:22.787Z,98.40
2019-04-16T09:26:13.578Z,97.70
2019-04-16T09:28:51.487Z,96.80
2019-04-16T09:31:38.047Z,97.60
2019-04-16T09:34:17.315Z,97.10
2019-04-16T09:36:59.511Z,96.30
2019-04-16T09:39:47.562Z,96.70
2019-04-16T09:42:16.573Z,97.00
2019-04-16T09:44:45.371Z,97.40
2019-04-16T09:47:14.215Z,96.70
2019-04-16T09:49:43.186Z,96.20
2019-04-16T09:52:12.121Z,97.10
2019-04-16T09:54:41.540Z,96.90
2019-04-16T09:57:11.632Z,95.70
2019-04-16T09:59:54.186Z,96.70
2019-04-16T10:02:26.439Z,97.10
2019-04-16T10:04:55.350Z,96.60
2019-04-16T10:07:24.413Z,96.00
2019-04-16T10:09:54.564Z,96.60
2019-04-16T10:12:23.996Z,96.80
2019-04-16T10:14:52.992Z,97.20
2019-04-16T10:17:22.076Z,97.20
2019-04-16T10:19:50.997Z,97.00
2019-04-16T10:22:20.100Z,97.10
2019-04-16T10:25:05.126Z,96.00
2019-04-16T10:27:39.352Z,95.80
2019-04-16T10:30:37.454Z,96.00
2019-04-16T10:33:06.801Z,96.10
2019-04-16T10:35:35.674Z,96.10
2019-04-16T10:38:15.393Z,96.50
2019-04-16T10:40:47.895Z,96.40
2019-04-16T10:43:44.526Z,97.00
2019-04-16T10:46:33.482Z,96.80
2019-04-16T10:49:27.273Z,96.40
2019-04-16T10:52:22.428Z,96.90
2019-04-16T10:55:02.307Z,96.60
2019-04-16T10:57:59.398Z,95.70
2019-04-16T11:00:37.103Z,95.20
2019-04-16T11:03:23.340Z,95.90
2019-04-16T11:05:57.740Z,95.20
2019-04-16T11:08:26.983Z,95.00
2019-04-16T11:10:56.020Z,95.70
2019-04-16T11:13:59.217Z,94.20
2019-04-16T11:16:18.302Z,93.90
2019-04-16T11:18:47.334Z,93.60
2019-04-16T11:21:16.586Z,94.90
2019-04-16T11:23:45.622Z,95.70
2019-04-16T11:26:14.521Z,94.70
2019-04-16T11:28:43.508Z,94.50
2019-04-16T11:31:15.161Z,95.00
2019-04-16T11:33:44.292Z,94.80
2019-04-16T11:36:19.344Z,94.80
2019-04-16T11:38:43.805Z,95.10
2019-04-16T11:41:12.790Z,94.60
2019-04-16T11:43:41.865Z,93.50
2019-04-16T11:46:10.818Z,93.90
2019-04-16T11:48:39.816Z,94.10
2019-04-16T11:51:08.789Z,94.00
2019-04-16T11:53:37.714Z,93.70
2019-04-16T11:56:06.828Z,92.40
2019-04-16T11:58:41.891Z,93.40
2019-04-16T12:01:35.587Z,93.80
2019-04-16T12:04:15.315Z,92.40
2019-04-16T12:07:00.662Z,93.60
2019-04-16T12:10:07.237Z,93.20
2019-04-16T12:12:58.643Z,92.50
2019-04-16T12:15:33.887Z,92.30
2019-04-16T12:18:10.793Z,93.50
2019-04-16T12:20:54.091Z,92.10
2019-04-16T12:23:41.013Z,93.10
2019-04-16T12:26:28.003Z,92.00
2019-04-16T12:29:09.575Z,92.70
2019-04-16T12:31:56.350Z,90.90
2019-04-16T12:34:32.731Z,90.30
2019-04-16T12:37:17.796Z,91.50
2019-04-16T12:40:00.562Z,90.90
2019-04-16T12:42:41.195Z,91.50
2019-04-16T12:45:20.072Z,91.50
2019-04-16T12:48:12.803Z,90.60
2019-04-16T12:50:59.599Z,92.40
2019-04-16T12:53:37.611Z,89.10
2019-04-16T12:56:24.322Z,87.60
2019-04-16T12:59:22.092Z,90.40
2019-04-16T13:02:03.527Z,86.90
2019-04-16T13:04:48.708Z,90.70
2019-04-16T13:07:44.883Z,90.00
2019-04-16T13:10:20.913Z,87.60
2019-04-16T13:13:15.051Z,89.60
2019-04-16T13:16:03.105Z,90.00
2019-04-16T13:18:51.190Z,88.30
2019-04-16T13:21:22.427Z,86.90
2019-04-16T13:24:16.658Z,87.50
2019-04-16T13:27:05.359Z,89.00
2019-04-16T13:29:34.228Z,85.40
2019-04-16T13:32:03.145Z,86.00
2019-04-16T13:34:51.193Z,88.00
2019-04-16T13:37:20.162Z,85.90
2019-04-16T13:39:59.239Z,85.00
2019-04-16T13:42:26.947Z,86.10
2019-04-16T13:45:15.766Z,85.90
2019-04-16T13:47:45.409Z,86.30
2019-04-16T13:50:22.261Z,84.50
2019-04-16T13:52:55.887Z,83.70
2019-04-16T13:55:31.961Z,79.20
2019-04-16T13:58:11.975Z,83.00
2019-04-16T14:00:47.949Z,82.20
2019-04-16T14:03:20.883Z,78.40
2019-04-16T14:05:49.035Z,77.10
2019-04-16T14:08:18.163Z,78.00
2019-04-16T14:10:46.991Z,78.30
2019-04-16T14:13:16.058Z,79.00
2019-04-16T14:15:45.125Z,78.60
2019-04-16T14:18:13.999Z,78.00
2019-04-16T14:20:42.990Z,79.30
2019-04-16T14:23:11.808Z,80.20
2019-04-16T14:25:40.621Z,76.50
2019-04-16T14:28:09.526Z,77.90
2019-04-16T14:30:42.731Z,77.60
2019-04-16T14:33:15.441Z,79.30
2019-04-16T14:35:44.350Z,78.50
2019-04-16T14:38:15.999Z,77.40
2019-04-16T14:40:44.949Z,78.60
2019-04-16T14:43:15.912Z,74.90
2019-04-16T14:45:58.199Z,78.60
2019-04-16T14:48:18.305Z,80.90
2019-04-16T14:50:47.253Z,81.10
2019-04-16T14:53:54.322Z,80.10
2019-04-16T14:56:40.789Z,83.00
2019-04-16T14:59:29.813Z,80.80
2019-04-16T15:02:07.126Z,81.90
2019-04-16T15:04:56.933Z,81.50
2019-04-16T15:07:32.977Z,80.90
2019-04-16T15:10:30.064Z,80.70
2019-04-16T15:13:15.911Z,82.10
2019-04-16T15:16:06.141Z,80.30
2019-04-16T15:18:41.254Z,82.90
2019-04-16T15:21:28.151Z,79.70
2019-04-16T15:24:15.982Z,80.70
2019-04-16T15:26:55.908Z,83.60
2019-04-16T15:29:48.271Z,79.10
2019-04-16T15:32:42.355Z,81.00
2019-04-16T15:35:15.083Z,81.50
2019-04-16T15:37:50.877Z,79.00
2019-04-16T15:40:30.637Z,80.30
2019-04-16T15:43:04.624Z,79.60
2019-04-16T15:45:37.904Z,81.10
2019-04-16T15:48:28.738Z,81.60
2019-04-16T15:51:15.507Z,80.80
2019-04-16T15:54:09.530Z,79.00
2019-04-16T15:56:50.183Z,81.20
2019-04-16T15:59:23.081Z,80.40
2019-04-16T16:02:09.884Z,79.40
2019-04-16T16:05:03.932Z,81.50
2019-04-16T16:07:38.269Z,82.20
2019-04-16T16:10:15.375Z,81.30
2019-04-16T16:12:44.194Z,80.00
2019-04-16T16:15:13.274Z,82.80
2019-04-16T16:17:42.111Z,80.90
2019-04-16T16:20:11.558Z,82.30
2019-04-16T16:22:40.732Z,82.70
2019-04-16T16:25:09.805Z,81.90
2019-04-16T16:27:41.730Z,83.00
2019-04-16T16:30:14.460Z,81.60
2019-04-16T16:32:40.483Z,81.10
2019-04-16T16:35:09.745Z,80.10
2019-04-16T16:37:38.742Z,80.60
2019-04-16T16:40:07.983Z,83.00
2019-04-16T16:42:37.225Z,81.30
2019-04-16T16:45:06.333Z,81.10
2019-04-16T16:47:44.526Z,81.00
2019-04-16T16:50:15.829Z,84.30
2019-04-16T16:53:02.179Z,85.50
2019-04-16T16:55:36.173Z,83.70
2019-04-16T16:58:17.964Z,83.10
2019-04-16T17:01:00.362Z,83.80
2019-04-16T17:03:44.766Z,84.80
2019-04-16T17:06:16.260Z,85.90
2019-04-16T17:08:45.273Z,84.60
2019-04-16T17:11:16.852Z,85.40
2019-04-16T17:13:44.823Z,86.50
2019-04-16T17:16:14.819Z,87.00
2019-04-16T17:18:45.638Z,86.20
2019-04-16T17:21:17.451Z,86.60
2019-04-16T17:23:46.390Z,87.30
2019-04-16T17:26:16.640Z,87.20
2019-04-16T17:28:45.870Z,87.10
2019-04-16T17:31:15.562Z,87.00
2019-04-16T17:33:44.727Z,89.10
2019-04-16T17:36:13.878Z,87.80
2019-04-16T17:38:42.956Z,87.30
2019-04-16T17:41:15.838Z,87.70
2019-04-16T17:44:09.724Z,86.80
2019-04-16T17:46:54.575Z,86.60
2019-04-16T17:49:41.581Z,86.40
2019-04-16T17:52:32.246Z,87.80
2019-04-16T17:55:20.334Z,86.50
2019-04-16T17:57:58.286Z,87.70
2019-04-16T18:00:55.462Z,86.10
2019-04-16T18:03:46.331Z,88.90
2019-04-16T18:06:33.278Z,85.40
2019-04-16T18:09:17.560Z,87.80
2019-04-16T18:12:07.286Z,88.10
2019-04-16T18:14:58.423Z,88.40
2019-04-16T18:17:49.530Z,88.10
2019-04-16T18:20:28.539Z,85.50
2019-04-16T18:23:19.570Z,84.20
2019-04-16T18:26:10.566Z,85.30
2019-04-16T18:28:45.297Z,85.40
2019-04-16T18:31:25.603Z,85.50
2019-04-16T18:33:58.857Z,86.80
2019-04-16T18:36:46.806Z,87.80
2019-04-16T18:39:37.426Z,87.80
2019-04-16T18:42:25.796Z,87.60
2019-04-16T18:45:06.066Z,89.30
2019-04-16T18:48:03.027Z,89.40
2019-04-16T18:50:28.075Z,88.70
2019-04-16T18:52:55.419Z,89.30
2019-04-16T18:55:24.431Z,89.70
2019-04-16T18:57:53.271Z,89.00
2019-04-16T19:00:39.928Z,88.80
2019-04-16T19:03:14.758Z,90.00
2019-04-16T19:05:40.603Z,90.00
2019-04-16T19:08:09.609Z,90.30
2019-04-16T19:10:38.734Z,90.30
2019-04-16T19:13:11.277Z,90.30
2019-04-16T19:15:38.450Z,90.40
2019-04-16T19:18:19.365Z,90.60
2019-04-16T19:20:38.091Z,90.60
2019-04-16T19:23:07.275Z,90.70
2019-04-16T19:25:36.162Z,91.00
2019-04-16T19:28:06.841Z,90.60
2019-04-16T19:30:35.918Z,90.90
2019-04-16T19:33:10.442Z,91.10
2019-04-16T19:35:41.869Z,91.60
2019-04-16T19:38:10.926Z,91.60
2019-04-16T19:40:39.814Z,91.80
2019-04-16T19:43:08.918Z,92.20
2019-04-16T19:45:40.649Z,92.50
2019-04-16T19:48:08.744Z,92.30
2019-04-16T19:50:38.172Z,92.00
2019-04-16T19:53:07.342Z,92.00
2019-04-16T19:55:36.510Z,92.40
2019-04-16T19:58:05.429Z,92.40
2019-04-16T20:00:34.470Z,92.60
2019-04-16T20:03:03.328Z,92.90
2019-04-16T20:05:32.147Z,92.60
2019-04-16T20:08:01.038Z,92.30
2019-04-16T20:10:30.034Z,92.40
2019-04-16T20:12:59.747Z,92.60
2019-04-16T20:15:29.053Z,92.40
2019-04-16T20:17:58.027Z,92.60
2019-04-16T20:20:27.151Z,92.70
2019-04-16T20:22:56.072Z,92.80
2019-04-16T20:25:25.183Z,92.90
2019-04-16T20:27:54.122Z,92.90
2019-04-16T20:30:24.291Z,93.00
2019-04-16T20:32:53.548Z,93.10
2019-04-16T20:35:22.773Z,93.30
2019-04-16T20:37:54.348Z,93.30
2019-04-16T20:40:22.364Z,93.60
2019-04-16T20:42:51.208Z,93.70
2019-04-16T20:45:20.194Z,93.90
2019-04-16T20:47:49.029Z,94.00
2019-04-16T20:50:20.610Z,94.10
2019-04-16T20:52:48.547Z,94.20
2019-04-16T20:55:17.571Z,94.50
2019-04-16T20:57:46.501Z,94.90
2019-04-16T21:00:21.326Z,95.00
2019-04-16T21:02:51.144Z,94.80
2019-04-16T21:05:22.587Z,94.70
2019-04-16T21:07:51.406Z,94.90
2019-04-16T21:10:20.656Z,94.80
2019-04-16T21:12:49.566Z,95.20
2019-04-16T21:15:18.715Z,95.20
2019-04-16T21:17:47.782Z,95.30
2019-04-16T21:20:19.314Z,95.70
2019-04-16T21:22:47.358Z,96.00
2019-04-16T21:25:16.200Z,95.90
2019-04-16T21:28:04.237Z,96.30
2019-04-16T21:30:33.283Z,96.50
2019-04-16T21:33:07.070Z,96.70
2019-04-16T21:35:41.969Z,96.80
2019-04-16T21:38:31.950Z,97.20
2019-04-16T21:41:01.097Z,97.00
2019-04-16T21:43:30.167Z,97.90
2019-04-16T21:45:59.166Z,98.10
2019-04-16T21:48:28.116Z,98.90
2019-04-16T21:50:57.088Z,98.30
2019-04-16T21:53:27.902Z,98.80
2019-04-16T21:55:57.993Z,99.70
2019-04-16T21:58:27.110Z,98.80
2019-04-16T22:01:09.857Z,98.90
2019-04-16T22:03:42.218Z,98.80
2019-04-16T22:06:09.540Z,99.90
2019-04-16T22:08:38.486Z,99.50
2019-04-16T22:11:08.580Z,99.20
2019-04-16T22:13:38.176Z,99.70
2019-04-16T22:16:07.213Z,99.60
2019-04-16T22:18:37.656Z,99.90
2019-04-16T22:21:09.502Z,99.90
2019-04-16T22:23:37.697Z,99.90
2019-04-16T22:26:10.211Z,99.90
2019-04-16T22:28:37.258Z,99.90
2019-04-16T22:31:06.416Z,99.90
2019-04-16T22:33:35.239Z,99.90
2019-04-16T22:36:04.405Z,99.90
2019-04-16T22:38:34.137Z,99.90
2019-04-16T22:41:23.545Z,99.90
2019-04-16T22:44:06.143Z,99.90
2019-04-16T22:46:53.802Z,99.90
2019-04-16T22:49:23.299Z,99.90
2019-04-16T22:51:52.413Z,99.90
2019-04-16T22:54:21.652Z,99.90
2019-04-16T22:56:57.805Z,99.90
2019-04-16T22:59:27.180Z,99.90
2019-04-16T23:01:56.330Z,99.90
2019-04-16T23:04:27.010Z,99.90
2019-04-16T23:06:56.403Z,99.90
2019-04-16T23:09:27.334Z,99.90
2019-04-16T23:11:56.829Z,99.90
2019-04-16T23:14:26.297Z,99.90
2019-04-16T23:16:55.127Z,99.90
2019-04-16T23:19:24.026Z,99.90
2019-04-16T23:21:53.057Z,99.90
2019-04-16T23:24:23.408Z,99.90
2019-04-16T23:26:52.459Z,99.90
2019-04-16T23:29:21.345Z,99.90
2019-04-16T23:31:55.238Z,99.90
2019-04-16T23:34:20.765Z,99.90
2019-04-16T23:36:49.745Z,99.90
2019-04-16T23:39:18.732Z,99.90
2019-04-16T23:41:48.244Z,99.90
2019-04-16T23:44:27.018Z,99.90
2019-04-16T23:47:13.881Z,99.90
2019-04-16T23:49:55.595Z,99.90
2019-04-16T23:52:31.893Z,99.90
2019-04-16T23:55:03.044Z,99.90
2019-04-16T23:57:49.671Z,99.90
